createdAt,value
2022-11-07T00:00:50.178Z,7.40
2022-11-07T00:03:17.564Z,7.50
2022-11-07T00:05:44.892Z,7.50
2022-11-07T00:08:11.572Z,7.20
2022-11-07T00:10:38.320Z,7.30
2022-11-07T00:13:05.263Z,7.00
2022-11-07T00:15:32.139Z,7.00
2022-11-07T00:17:59.011Z,7.20
2022-11-07T00:20:25.806Z,7.40
2022-11-07T00:22:52.589Z,7.50
2022-11-07T00:25:19.334Z,7.50
2022-11-07T00:27:46.101Z,7.30
2022-11-07T00:30:12.961Z,7.30
2022-11-07T00:32:39.757Z,7.20
2022-11-07T00:35:06.506Z,6.90
2022-11-07T00:37:33.694Z,6.90
2022-11-07T00:40:00.627Z,7.20
2022-11-07T00:42:27.484Z,7.10
2022-11-07T00:44:54.399Z,7.30
2022-11-07T00:47:21.198Z,7.30
2022-11-07T00:49:48.128Z,7.30
2022-11-07T00:52:14.997Z,6.90
2022-11-07T00:54:41.742Z,7.10
2022-11-07T00:57:08.482Z,7.30
2022-11-07T00:59:35.420Z,7.20
2022-11-07T01:02:02.461Z,7.20
2022-11-07T01:04:29.351Z,7.20
2022-11-07T01:06:56.162Z,7.20
2022-11-07T01:09:23.060Z,6.50
2022-11-07T01:11:50.008Z,6.70
2022-11-07T01:14:16.729Z,6.50
2022-11-07T01:16:43.986Z,6.80
2022-11-07T01:19:10.976Z,6.90
2022-11-07T01:21:37.724Z,6.80
2022-11-07T01:24:04.519Z,7.00
2022-11-07T01:26:31.486Z,7.10
2022-11-07T01:28:58.880Z,7.20
2022-11-07T01:31:26.576Z,7.20
2022-11-07T01:33:53.429Z,7.20
2022-11-07T01:36:20.236Z,6.90
2022-11-07T01:38:47.912Z,7.00
2022-11-07T01:41:14.748Z,7.00
2022-11-07T01:43:41.550Z,7.30
2022-11-07T01:46:10.611Z,7.30
2022-11-07T01:48:37.410Z,7.40
2022-11-07T01:51:04.255Z,7.50
2022-11-07T01:53:31.060Z,7.30
2022-11-07T01:55:57.888Z,7.40
2022-11-07T01:58:25.022Z,7.20
2022-11-07T02:00:51.733Z,7.30
2022-11-07T02:03:18.640Z,7.50
2022-11-07T02:05:45.586Z,7.60
2022-11-07T02:08:12.333Z,7.60
2022-11-07T02:10:39.260Z,7.70
2022-11-07T02:13:05.905Z,7.50
2022-11-07T02:15:32.852Z,7.40
2022-11-07T02:17:59.622Z,7.40
2022-11-07T02:20:26.297Z,7.50
2022-11-07T02:22:53.126Z,7.20
2022-11-07T02:25:20.109Z,6.90
2022-11-07T02:27:46.881Z,7.00
2022-11-07T02:30:13.794Z,7.30
2022-11-07T02:32:40.594Z,7.40
2022-11-07T02:35:07.347Z,7.20
2022-11-07T02:37:34.232Z,7.40
2022-11-07T02:40:01.149Z,7.40
2022-11-07T02:42:28.040Z,7.10
2022-11-07T02:44:54.794Z,7.20
2022-11-07T02:47:21.471Z,7.40
2022-11-07T02:49:48.149Z,7.50
2022-11-07T02:52:15.002Z,7.70
2022-11-07T02:54:41.670Z,7.80
2022-11-07T02:57:08.544Z,7.80
2022-11-07T02:59:35.370Z,7.90
2022-11-07T03:02:02.195Z,7.80
2022-11-07T03:04:29.173Z,7.50
2022-11-07T03:06:56.146Z,7.60
2022-11-07T03:09:22.870Z,7.10
2022-11-07T03:11:49.686Z,7.40
2022-11-07T03:14:16.351Z,7.40
2022-11-07T03:16:43.140Z,7.60
2022-11-07T03:19:09.791Z,7.70
2022-11-07T03:21:36.443Z,7.70
2022-11-07T03:24:03.191Z,7.90
2022-11-07T03:26:29.881Z,8.00
2022-11-07T03:28:56.576Z,8.20
2022-11-07T03:31:23.251Z,8.30
2022-11-07T03:33:49.936Z,8.20
2022-11-07T03:36:16.611Z,8.20
2022-11-07T03:38:43.460Z,7.80
2022-11-07T03:41:10.342Z,7.80
2022-11-07T03:43:37.107Z,8.10
2022-11-07T03:46:03.807Z,8.20
2022-11-07T03:48:30.447Z,7.90
2022-11-07T03:50:57.185Z,7.90
2022-11-07T03:53:25.933Z,7.90
2022-11-07T03:55:53.052Z,8.10
2022-11-07T03:58:19.710Z,8.30
2022-11-07T04:00:46.389Z,8.30
2022-11-07T04:03:13.312Z,8.20
2022-11-07T04:05:40.158Z,8.40
2022-11-07T04:08:06.831Z,8.40
2022-11-07T04:10:33.526Z,8.10
2022-11-07T04:13:00.190Z,7.90
2022-11-07T04:15:26.871Z,7.90
2022-11-07T04:17:53.517Z,7.90
2022-11-07T04:20:20.193Z,8.00
2022-11-07T04:22:46.801Z,8.30
2022-11-07T04:25:13.430Z,8.40
2022-11-07T04:27:40.060Z,8.70
2022-11-07T04:30:06.776Z,8.70
2022-11-07T04:32:33.423Z,8.60
2022-11-07T04:35:00.077Z,8.40
2022-11-07T04:37:26.928Z,8.10
2022-11-07T04:39:53.686Z,8.20
2022-11-07T04:42:20.311Z,8.20
2022-11-07T04:44:47.236Z,8.40
2022-11-07T04:47:13.891Z,8.70
2022-11-07T04:49:40.543Z,9.00
2022-11-07T04:52:07.189Z,9.20
2022-11-07T04:54:33.887Z,9.20
2022-11-07T04:57:00.571Z,9.00
2022-11-07T04:59:27.226Z,8.70
2022-11-07T05:01:53.966Z,8.80
2022-11-07T05:04:20.645Z,8.90
2022-11-07T05:06:47.288Z,8.80
2022-11-07T05:09:14.087Z,9.00
2022-11-07T05:11:40.886Z,9.00
2022-11-07T05:14:07.513Z,9.00
2022-11-07T05:16:34.529Z,8.90
2022-11-07T05:19:01.427Z,8.80
2022-11-07T05:21:28.276Z,8.70
2022-11-07T05:23:54.881Z,8.40
2022-11-07T05:26:21.528Z,8.40
2022-11-07T05:28:48.358Z,8.60
2022-11-07T05:31:15.032Z,8.70
2022-11-07T05:33:41.920Z,8.70
2022-11-07T05:36:10.670Z,8.90
2022-11-07T05:38:37.420Z,8.90
2022-11-07T05:41:04.736Z,9.00
2022-11-07T05:43:31.721Z,8.90
2022-11-07T05:45:58.971Z,8.70
2022-11-07T05:48:25.894Z,8.90
2022-11-07T05:50:52.785Z,9.00
2022-11-07T05:53:20.037Z,9.20
2022-11-07T05:55:46.809Z,8.90
2022-11-07T05:58:13.826Z,8.70
2022-11-07T06:00:40.649Z,9.00
2022-11-07T06:03:07.788Z,9.20
2022-11-07T06:05:34.746Z,9.00
2022-11-07T06:08:01.508Z,9.20
2022-11-07T06:10:28.184Z,9.30
2022-11-07T06:12:56.171Z,9.50
2022-11-07T06:15:22.904Z,9.50
2022-11-07T06:17:49.551Z,9.30
2022-11-07T06:20:16.230Z,9.10
2022-11-07T06:22:42.889Z,9.10
2022-11-07T06:25:09.544Z,9.10
2022-11-07T06:27:36.214Z,9.30
2022-11-07T06:30:02.899Z,9.00
2022-11-07T06:32:29.527Z,9.20
2022-11-07T06:34:56.165Z,9.40
2022-11-07T06:37:22.838Z,9.50
2022-11-07T06:39:49.468Z,9.60
2022-11-07T06:42:16.159Z,9.70
2022-11-07T06:44:42.827Z,9.80
2022-11-07T06:47:09.562Z,9.00
2022-11-07T06:49:36.213Z,8.90
2022-11-07T06:52:02.878Z,9.10
2022-11-07T06:54:29.568Z,9.10
2022-11-07T06:56:56.188Z,9.20
2022-11-07T06:59:22.852Z,9.10
2022-11-07T07:01:49.591Z,9.10
2022-11-07T07:04:16.314Z,9.10
2022-11-07T07:06:42.962Z,9.40
2022-11-07T07:09:09.616Z,9.50
2022-11-07T07:11:36.276Z,9.50
2022-11-07T07:14:04.039Z,9.50
2022-11-07T07:16:32.109Z,9.40
2022-11-07T07:18:58.779Z,9.50
2022-11-07T07:21:25.429Z,9.50
2022-11-07T07:23:52.072Z,9.20
2022-11-07T07:26:18.697Z,9.20
2022-11-07T07:28:45.343Z,9.40
2022-11-07T07:31:12.024Z,9.40
2022-11-07T07:33:38.646Z,9.40
2022-11-07T07:36:05.328Z,9.40
2022-11-07T07:38:31.963Z,9.60
2022-11-07T07:40:58.664Z,9.70
2022-11-07T07:43:25.306Z,9.70
2022-11-07T07:45:51.951Z,9.50
2022-11-07T07:48:18.641Z,9.60
2022-11-07T07:50:45.378Z,9.60
2022-11-07T07:53:12.026Z,9.60
2022-11-07T07:55:38.766Z,9.80
2022-11-07T07:58:05.426Z,10.00
2022-11-07T08:00:32.162Z,10.20
2022-11-07T08:02:58.817Z,10.40
2022-11-07T08:05:25.459Z,10.60
2022-11-07T08:07:52.148Z,10.60
2022-11-07T08:13:05.431Z,10.80
2022-11-07T08:15:32.049Z,10.60
2022-11-07T08:17:58.682Z,10.70
2022-11-07T08:20:25.332Z,11.00
2022-11-07T08:22:51.967Z,11.00
2022-11-07T08:25:18.653Z,11.30
2022-11-07T08:27:45.258Z,11.40
2022-11-07T08:30:17.564Z,11.50
2022-11-07T08:32:44.666Z,11.60
2022-11-07T08:35:11.330Z,11.70
2022-11-07T08:37:38.017Z,11.80
2022-11-07T08:40:04.718Z,11.90
2022-11-07T08:42:31.463Z,11.90
2022-11-07T08:44:58.313Z,12.10
2022-11-07T08:47:24.966Z,12.00
2022-11-07T08:49:51.607Z,12.30
2022-11-07T08:52:18.250Z,12.50
2022-11-07T08:54:44.891Z,12.80
2022-11-07T08:57:11.556Z,12.80
2022-11-07T08:59:38.242Z,12.70
2022-11-07T09:04:48.923Z,12.30
2022-11-07T09:07:15.566Z,12.10
2022-11-07T09:09:42.265Z,12.20
2022-11-07T09:12:08.980Z,12.50
2022-11-07T09:14:35.607Z,12.60
2022-11-07T09:17:02.284Z,12.40
2022-11-07T09:19:28.954Z,12.60
2022-11-07T09:21:55.615Z,13.00
2022-11-07T09:24:22.275Z,13.40
2022-11-07T09:26:48.907Z,13.60
2022-11-07T09:29:15.525Z,13.40
2022-11-07T09:31:42.212Z,13.40
2022-11-07T09:34:08.905Z,13.80
2022-11-07T09:36:35.577Z,14.00
2022-11-07T09:39:02.220Z,14.10
2022-11-07T09:41:28.927Z,14.30
2022-11-07T09:43:55.693Z,14.40
2022-11-07T09:46:22.360Z,14.50
2022-11-07T09:48:49.301Z,14.40
2022-11-07T09:51:16.105Z,14.30
2022-11-07T09:53:42.779Z,14.20
2022-11-07T09:56:09.444Z,14.50
2022-11-07T09:58:36.089Z,14.60
2022-11-07T10:01:02.741Z,14.30
2022-11-07T10:03:29.442Z,14.30
2022-11-07T10:05:56.070Z,14.40
2022-11-07T10:08:22.683Z,14.40
2022-11-07T10:10:51.217Z,15.00
2022-11-07T10:13:18.130Z,15.10
2022-11-07T10:15:44.975Z,15.30
2022-11-07T10:18:11.602Z,15.40
2022-11-07T10:20:38.242Z,15.60
2022-11-07T10:23:04.866Z,15.60
2022-11-07T10:25:31.522Z,16.00
2022-11-07T10:27:58.190Z,16.20
2022-11-07T10:30:24.926Z,16.50
2022-11-07T10:32:51.560Z,16.60
2022-11-07T10:35:18.205Z,16.70
2022-11-07T10:37:44.877Z,16.60
2022-11-07T10:40:12.121Z,16.40
2022-11-07T10:42:38.764Z,16.70
2022-11-07T10:45:05.366Z,17.00
2022-11-07T10:47:32.201Z,17.00
2022-11-07T10:49:58.883Z,17.00
2022-11-07T10:52:25.604Z,17.00
2022-11-07T10:54:52.378Z,17.00
2022-11-07T10:57:19.139Z,17.10
2022-11-07T10:59:45.808Z,17.30
2022-11-07T11:02:12.492Z,17.60
2022-11-07T11:04:39.155Z,17.70
2022-11-07T11:07:05.817Z,17.60
2022-11-07T11:09:32.455Z,17.60
2022-11-07T11:11:59.154Z,17.60
2022-11-07T11:14:25.784Z,17.40
2022-11-07T11:16:52.752Z,17.70
2022-11-07T11:19:19.560Z,18.10
2022-11-07T11:21:46.357Z,18.30
2022-11-07T11:24:13.586Z,18.40
2022-11-07T11:26:40.613Z,17.90
2022-11-07T11:29:07.636Z,17.80
2022-11-07T11:31:34.413Z,18.00
2022-11-07T11:34:01.310Z,18.10
2022-11-07T11:36:27.990Z,18.40
2022-11-07T11:38:54.720Z,18.70
2022-11-07T11:41:22.002Z,18.20
2022-11-07T11:43:48.767Z,18.60
2022-11-07T11:46:15.981Z,18.80
2022-11-07T11:48:43.308Z,18.80
2022-11-07T11:51:10.432Z,18.40
2022-11-07T11:53:37.120Z,18.20
2022-11-07T11:56:03.869Z,18.40
2022-11-07T11:58:31.167Z,18.10
2022-11-07T12:00:57.902Z,17.80
2022-11-07T12:03:24.524Z,18.00
2022-11-07T12:05:51.193Z,18.40
2022-11-07T12:08:17.831Z,17.90
2022-11-07T12:10:44.508Z,18.00
2022-11-07T12:13:11.186Z,18.10
2022-11-07T12:15:37.877Z,18.20
2022-11-07T12:18:04.510Z,18.40
2022-11-07T12:20:31.168Z,18.60
2022-11-07T12:22:57.828Z,18.90
2022-11-07T12:25:24.497Z,18.60
2022-11-07T12:27:51.131Z,18.30
2022-11-07T12:30:17.782Z,18.50
2022-11-07T12:32:44.550Z,18.80
2022-11-07T12:35:11.182Z,18.70
2022-11-07T12:37:37.827Z,18.90
2022-11-07T12:40:04.431Z,18.60
2022-11-07T12:42:31.112Z,18.30
2022-11-07T12:44:57.706Z,18.10
2022-11-07T12:47:24.416Z,18.20
2022-11-07T12:49:51.047Z,18.30
2022-11-07T12:52:17.694Z,18.60
2022-11-07T12:54:44.306Z,18.70
2022-11-07T12:57:10.999Z,18.40
2022-11-07T12:59:37.638Z,18.10
2022-11-07T13:02:04.370Z,18.10
2022-11-07T13:04:31.086Z,18.50
2022-11-07T13:06:57.703Z,18.70
2022-11-07T13:09:24.356Z,19.00
2022-11-07T13:11:51.047Z,18.90
2022-11-07T13:14:23.534Z,18.90
2022-11-07T13:16:50.805Z,18.90
2022-11-07T13:19:17.875Z,18.70
2022-11-07T13:21:44.912Z,18.90
2022-11-07T13:24:12.523Z,18.50
2022-11-07T13:26:48.064Z,18.90
2022-11-07T13:29:15.254Z,18.60
2022-11-07T13:31:42.140Z,18.10
2022-11-07T13:34:08.955Z,18.20
2022-11-07T13:36:35.768Z,18.40
2022-11-07T13:39:02.663Z,18.20
2022-11-07T13:41:29.883Z,18.60
2022-11-07T13:43:56.633Z,18.80
2022-11-07T13:46:23.672Z,19.20
2022-11-07T13:48:50.975Z,19.00
2022-11-07T13:51:18.095Z,18.90
2022-11-07T13:53:45.851Z,18.60
2022-11-07T13:56:12.734Z,18.60
2022-11-07T13:58:39.758Z,18.20
2022-11-07T14:01:06.654Z,18.10
2022-11-07T14:03:33.599Z,17.70
2022-11-07T14:06:00.818Z,17.90
2022-11-07T14:08:27.969Z,17.90
2022-11-07T14:10:55.536Z,17.70
2022-11-07T14:13:22.221Z,17.70
2022-11-07T14:15:48.956Z,18.00
2022-11-07T14:18:15.987Z,18.10
2022-11-07T14:20:43.374Z,18.10
2022-11-07T14:23:10.124Z,17.70
2022-11-07T14:25:37.247Z,17.10
2022-11-07T14:28:03.929Z,17.00
2022-11-07T14:30:30.865Z,17.00
2022-11-07T14:32:57.625Z,17.30
2022-11-07T14:35:24.867Z,17.70
2022-11-07T14:37:51.776Z,17.90
2022-11-07T14:40:19.241Z,18.00
2022-11-07T14:42:46.485Z,18.10
2022-11-07T14:45:13.768Z,17.90
2022-11-07T14:47:40.986Z,17.30
2022-11-07T14:50:07.606Z,17.40
2022-11-07T14:52:34.799Z,17.40
2022-11-07T14:55:01.579Z,17.00
2022-11-07T14:57:28.313Z,16.80
2022-11-07T14:59:55.249Z,16.80
2022-11-07T15:02:22.932Z,16.90
2022-11-07T15:04:50.002Z,16.90
2022-11-07T15:07:16.916Z,16.60
2022-11-07T15:09:44.191Z,16.60
2022-11-07T15:12:11.135Z,16.30
2022-11-07T15:14:37.927Z,16.00
2022-11-07T15:17:04.983Z,15.80
2022-11-07T15:19:32.138Z,15.90
2022-11-07T15:21:59.601Z,15.70
2022-11-07T15:24:26.378Z,15.60
2022-11-07T15:26:53.903Z,15.50
2022-11-07T15:29:21.342Z,15.20
2022-11-07T15:31:48.210Z,15.30
2022-11-07T15:34:15.388Z,15.20
2022-11-07T15:36:42.562Z,15.30
2022-11-07T15:39:10.106Z,15.20
2022-11-07T15:41:36.867Z,15.20
2022-11-07T15:44:03.584Z,15.10
2022-11-07T15:46:30.904Z,14.90
2022-11-07T15:48:57.780Z,14.80
2022-11-07T15:51:24.700Z,14.70
2022-11-07T15:53:51.467Z,14.70
2022-11-07T15:56:18.185Z,14.60
2022-11-07T15:58:44.899Z,14.60
2022-11-07T16:01:11.704Z,14.60
2022-11-07T16:03:38.580Z,14.30
2022-11-07T16:06:05.751Z,14.20
2022-11-07T16:08:32.970Z,14.20
2022-11-07T16:10:59.706Z,14.10
2022-11-07T16:13:26.648Z,13.70
2022-11-07T16:15:53.399Z,13.80
2022-11-07T16:18:20.156Z,13.90
2022-11-07T16:20:46.833Z,13.90
2022-11-07T16:23:13.486Z,13.90
2022-11-07T16:25:40.119Z,13.70
2022-11-07T16:28:07.401Z,13.60
2022-11-07T16:30:34.129Z,13.50
2022-11-07T16:33:00.825Z,13.60
2022-11-07T16:35:27.530Z,13.40
2022-11-07T16:37:54.197Z,12.80
2022-11-07T16:40:21.135Z,12.80
2022-11-07T16:42:47.841Z,13.00
2022-11-07T16:45:14.509Z,13.20
2022-11-07T16:47:41.174Z,13.20
2022-11-07T16:50:08.517Z,12.70
2022-11-07T16:52:35.318Z,12.10
2022-11-07T16:55:02.103Z,12.10
2022-11-07T16:57:28.807Z,12.30
2022-11-07T16:59:55.590Z,12.60
2022-11-07T17:02:22.439Z,12.60
2022-11-07T17:04:49.226Z,12.80
2022-11-07T17:07:16.381Z,12.80
2022-11-07T17:09:43.080Z,12.80
2022-11-07T17:12:09.885Z,12.80
2022-11-07T17:14:36.626Z,12.60
2022-11-07T17:17:03.612Z,11.90
2022-11-07T17:19:30.265Z,12.10
2022-11-07T17:21:57.276Z,12.20
2022-11-07T17:24:23.918Z,12.20
2022-11-07T17:26:50.665Z,12.00
2022-11-07T17:29:17.387Z,12.20
2022-11-07T17:31:44.100Z,12.40
2022-11-07T17:34:10.840Z,12.40
2022-11-07T17:36:38.394Z,12.50
2022-11-07T17:39:05.520Z,12.50
2022-11-07T17:41:32.288Z,12.50
2022-11-07T17:43:59.045Z,12.40
2022-11-07T17:46:25.897Z,11.60
2022-11-07T17:48:52.829Z,11.30
2022-11-07T17:51:19.677Z,11.40
2022-11-07T17:53:46.351Z,11.70
2022-11-07T17:56:13.099Z,12.00
2022-11-07T17:58:40.036Z,12.10
2022-11-07T18:01:07.054Z,12.10
2022-11-07T18:03:33.743Z,12.10
2022-11-07T18:06:00.460Z,11.70
2022-11-07T18:08:46.412Z,11.50
2022-11-07T18:11:13.959Z,11.30
2022-11-07T18:13:40.756Z,11.00
2022-11-07T18:16:07.478Z,11.00
2022-11-07T18:18:34.202Z,11.10
2022-11-07T18:21:00.890Z,11.40
2022-11-07T18:23:27.587Z,11.50
2022-11-07T18:25:54.240Z,11.50
2022-11-07T18:28:21.191Z,11.50
2022-11-07T18:30:47.865Z,11.60
2022-11-07T18:33:14.801Z,11.60
2022-11-07T18:35:41.745Z,11.60
2022-11-07T18:38:08.491Z,11.30
2022-11-07T18:40:35.113Z,11.40
2022-11-07T18:43:01.932Z,11.50
2022-11-07T18:45:28.594Z,11.60
2022-11-07T18:47:55.268Z,11.50
2022-11-07T18:50:22.021Z,11.40
2022-11-07T18:52:49.245Z,11.30
2022-11-07T18:55:16.212Z,10.50
2022-11-07T18:57:42.899Z,10.50
2022-11-07T19:00:13.458Z,10.50
2022-11-07T19:02:40.569Z,10.30
2022-11-07T19:05:07.386Z,10.70
2022-11-07T19:07:34.320Z,10.90
2022-11-07T19:10:01.061Z,11.00
2022-11-07T19:12:27.814Z,11.00
2022-11-07T19:14:54.564Z,11.00
2022-11-07T19:17:21.217Z,10.70
2022-11-07T19:19:47.947Z,10.90
2022-11-07T19:22:14.849Z,10.90
2022-11-07T19:24:41.521Z,10.90
2022-11-07T19:27:08.244Z,11.00
2022-11-07T19:29:35.033Z,10.90
2022-11-07T19:32:01.696Z,11.00
2022-11-07T19:34:28.438Z,10.60
2022-11-07T19:36:55.108Z,10.70
2022-11-07T19:39:21.740Z,10.30
2022-11-07T19:41:48.443Z,10.20
2022-11-07T19:44:15.253Z,10.30
2022-11-07T19:46:41.902Z,10.30
2022-11-07T19:49:08.602Z,10.40
2022-11-07T19:51:35.237Z,10.20
2022-11-07T19:54:01.907Z,10.10
2022-11-07T19:56:28.617Z,10.30
2022-11-07T19:58:55.304Z,10.20
2022-11-07T20:01:22.105Z,10.10
2022-11-07T20:03:48.795Z,10.10
2022-11-07T20:06:15.465Z,10.30
2022-11-07T20:08:42.173Z,9.80
2022-11-07T20:11:08.876Z,9.90
2022-11-07T20:13:35.954Z,10.10
2022-11-07T20:16:02.594Z,9.80
2022-11-07T20:18:29.375Z,9.70
2022-11-07T20:20:56.071Z,9.70
2022-11-07T20:23:22.794Z,10.00
2022-11-07T20:25:49.583Z,10.10
2022-11-07T20:28:16.365Z,10.10
2022-11-07T20:30:43.102Z,10.00
2022-11-07T20:33:09.786Z,10.00
2022-11-07T20:35:36.583Z,10.00
2022-11-07T20:38:03.299Z,9.80
2022-11-07T20:40:29.997Z,9.70
2022-11-07T20:42:56.946Z,9.60
2022-11-07T20:45:23.683Z,9.80
2022-11-07T20:47:50.487Z,9.60
2022-11-07T20:50:17.186Z,9.50
2022-11-07T20:52:43.868Z,9.70
2022-11-07T20:55:10.601Z,9.70
2022-11-07T20:57:37.320Z,9.80
2022-11-07T21:00:04.036Z,9.30
2022-11-07T21:02:30.790Z,9.40
2022-11-07T21:05:16.718Z,9.60
2022-11-07T21:07:44.226Z,9.60
2022-11-07T21:10:11.276Z,8.70
2022-11-07T21:12:38.341Z,8.90
2022-11-07T21:15:05.127Z,9.10
2022-11-07T21:17:31.837Z,9.10
2022-11-07T21:19:58.675Z,9.10
2022-11-07T21:22:29.162Z,9.20
2022-11-07T21:24:56.379Z,9.40
2022-11-07T21:27:23.068Z,9.20
2022-11-07T21:29:49.753Z,9.30
2022-11-07T21:32:16.423Z,9.50
2022-11-07T21:34:43.169Z,9.60
2022-11-07T21:37:09.853Z,9.40
2022-11-07T21:39:36.676Z,9.30
2022-11-07T21:42:03.334Z,9.20
2022-11-07T21:44:30.007Z,9.10
2022-11-07T21:46:56.814Z,9.10
2022-11-07T21:49:23.675Z,8.50
2022-11-07T21:51:50.372Z,8.70
2022-11-07T21:54:17.068Z,8.90
2022-11-07T21:56:43.783Z,9.10
2022-11-07T21:59:10.530Z,9.00
2022-11-07T22:01:37.405Z,9.10
2022-11-07T22:04:08.965Z,9.00
2022-11-07T22:06:36.305Z,9.00
2022-11-07T22:09:03.071Z,9.00
2022-11-07T22:11:29.714Z,9.10
2022-11-07T22:13:56.374Z,9.10
2022-11-07T22:16:23.310Z,9.10
2022-11-07T22:18:50.124Z,9.10
2022-11-07T22:21:16.811Z,9.10
2022-11-07T22:23:43.469Z,9.10
2022-11-07T22:26:10.623Z,8.80
2022-11-07T22:28:41.540Z,8.80
2022-11-07T22:31:11.199Z,8.90
2022-11-07T22:33:37.871Z,8.90
2022-11-07T22:36:04.577Z,8.90
2022-11-07T22:38:31.438Z,8.90
2022-11-07T22:40:58.089Z,8.80
2022-11-07T22:43:24.899Z,8.80
2022-11-07T22:45:51.728Z,8.40
2022-11-07T22:48:18.406Z,8.60
2022-11-07T22:50:45.097Z,8.70
2022-11-07T22:53:11.759Z,8.70
2022-11-07T22:55:38.508Z,8.70
2022-11-07T22:58:05.228Z,8.60
2022-11-07T23:00:31.864Z,8.60
2022-11-07T23:02:58.674Z,8.60
2022-11-07T23:05:25.345Z,8.40
2022-11-07T23:07:52.044Z,8.50
2022-11-07T23:10:18.729Z,8.60
2022-11-07T23:12:45.607Z,8.60
2022-11-07T23:15:12.349Z,8.60
2022-11-07T23:17:39.036Z,8.60
2022-11-07T23:20:05.939Z,8.60
2022-11-07T23:22:32.670Z,8.60
2022-11-07T23:24:59.388Z,8.60
2022-11-07T23:27:26.083Z,8.60
2022-11-07T23:29:52.769Z,8.50
2022-11-07T23:32:19.552Z,8.30
2022-11-07T23:34:46.408Z,8.40
2022-11-07T23:37:13.174Z,8.10
2022-11-07T23:39:39.808Z,7.90
2022-11-07T23:42:06.935Z,7.70
2022-11-07T23:44:33.928Z,7.80
2022-11-07T23:47:00.665Z,7.70
2022-11-07T23:49:27.398Z,7.90
2022-11-07T23:51:54.128Z,7.90
2022-11-07T23:54:20.948Z,7.80
2022-11-07T23:56:47.834Z,8.00
2022-11-07T23:59:14.545Z,8.10
